sensor_id;sensor_type;location;lat;lon;timestamp;temperature;humidity
5846;DHT22;2949;50.778;7.094;2023-07-30T00:01:19;15.20;99.90
5846;DHT22;2949;50.778;7.094;2023-07-30T00:03:44;15.20;99.90
5846;DHT22;2949;50.778;7.094;2023-07-30T00:06:10;15.20;99.90
5846;DHT22;2949;50.778;7.094;2023-07-30T00:08:35;15.20;99.90
5846;DHT22;2949;50.778;7.094;2023-07-30T00:11:01;15.10;99.90
5846;DHT22;2949;50.778;7.094;2023-07-30T00:13:27;15.00;99.90
5846;DHT22;2949;50.778;7.094;2023-07-30T00:15:52;15.10;99.90
5846;DHT22;2949;50.778;7.094;2023-07-30T00:18:17;15.10;99.90
5846;DHT22;2949;50.778;7.094;2023-07-30T00:20:43;15.10;99.90
5846;DHT22;2949;50.778;7.094;2023-07-30T00:23:09;15.00;99.90
5846;DHT22;2949;50.778;7.094;2023-07-30T00:25:34;15.00;99.90
5846;DHT22;2949;50.778;7.094;2023-07-30T00:28:00;15.00;99.90
5846;DHT22;2949;50.778;7.094;2023-07-30T00:30:25;15.00;99.90
5846;DHT22;2949;50.778;7.094;2023-07-30T00:32:51;15.00;99.90
5846;DHT22;2949;50.778;7.094;2023-07-30T00:35:16;15.00;99.90
5846;DHT22;2949;50.778;7.094;2023-07-30T00:37:42;14.90;99.90
5846;DHT22;2949;50.778;7.094;2023-07-30T00:40:08;14.90;99.90
5846;DHT22;2949;50.778;7.094;2023-07-30T00:42:33;14.90;99.90
5846;DHT22;2949;50.778;7.094;2023-07-30T00:44:59;14.90;99.90
5846;DHT22;2949;50.778;7.094;2023-07-30T00:47:25;14.80;99.90
5846;DHT22;2949;50.778;7.094;2023-07-30T00:49:51;14.80;99.90
5846;DHT22;2949;50.778;7.094;2023-07-30T00:52:17;14.80;99.90
5846;DHT22;2949;50.778;7.094;2023-07-30T00:54:43;14.80;99.90
5846;DHT22;2949;50.778;7.094;2023-07-30T00:57:10;14.80;99.90
5846;DHT22;2949;50.778;7.094;2023-07-30T00:59:36;14.80;99.90
5846;DHT22;2949;50.778;7.094;2023-07-30T01:02:02;14.70;99.90
5846;DHT22;2949;50.778;7.094;2023-07-30T01:04:28;14.70;99.90
5846;DHT22;2949;50.778;7.094;2023-07-30T01:06:54;14.60;99.90
5846;DHT22;2949;50.778;7.094;2023-07-30T01:09:20;14.60;99.90
5846;DHT22;2949;50.778;7.094;2023-07-30T01:11:45;14.60;99.90
5846;DHT22;2949;50.778;7.094;2023-07-30T01:14:12;14.60;99.90
5846;DHT22;2949;50.778;7.094;2023-07-30T01:16:39;14.50;99.90
5846;DHT22;2949;50.778;7.094;2023-07-30T01:19:06;14.50;99.90
5846;DHT22;2949;50.778;7.094;2023-07-30T01:21:33;14.50;99.90
5846;DHT22;2949;50.778;7.094;2023-07-30T01:23:59;14.50;99.90
5846;DHT22;2949;50.778;7.094;2023-07-30T01:26:28;14.50;99.90
5846;DHT22;2949;50.778;7.094;2023-07-30T01:28:58;14.40;99.90
5846;DHT22;2949;50.778;7.094;2023-07-30T01:31:26;14.40;99.90
5846;DHT22;2949;50.778;7.094;2023-07-30T01:33:54;14.40;99.90
5846;DHT22;2949;50.778;7.094;2023-07-30T01:36:21;14.40;99.90
5846;DHT22;2949;50.778;7.094;2023-07-30T01:38:48;14.40;99.90
5846;DHT22;2949;50.778;7.094;2023-07-30T01:41:14;14.50;99.90
5846;DHT22;2949;50.778;7.094;2023-07-30T01:43:39;14.60;99.90
5846;DHT22;2949;50.778;7.094;2023-07-30T01:46:05;14.70;99.90
5846;DHT22;2949;50.778;7.094;2023-07-30T01:48:30;14.80;99.90
5846;DHT22;2949;50.778;7.094;2023-07-30T01:50:56;14.90;99.90
5846;DHT22;2949;50.778;7.094;2023-07-30T01:53:21;15.00;99.90
5846;DHT22;2949;50.778;7.094;2023-07-30T01:55:47;15.10;99.90
5846;DHT22;2949;50.778;7.094;2023-07-30T01:58:13;15.20;99.90
5846;DHT22;2949;50.778;7.094;2023-07-30T02:00:39;15.20;99.90
5846;DHT22;2949;50.778;7.094;2023-07-30T02:03:05;15.30;99.90
5846;DHT22;2949;50.778;7.094;2023-07-30T02:05:30;15.40;99.90
5846;DHT22;2949;50.778;7.094;2023-07-30T02:07:57;15.40;99.90
5846;DHT22;2949;50.778;7.094;2023-07-30T02:10:25;15.40;99.90
5846;DHT22;2949;50.778;7.094;2023-07-30T02:12:51;15.50;99.90
5846;DHT22;2949;50.778;7.094;2023-07-30T02:15:16;15.50;99.90
5846;DHT22;2949;50.778;7.094;2023-07-30T02:17:42;15.50;99.90
5846;DHT22;2949;50.778;7.094;2023-07-30T02:20:08;15.50;99.90
5846;DHT22;2949;50.778;7.094;2023-07-30T02:22:34;15.50;99.90
5846;DHT22;2949;50.778;7.094;2023-07-30T02:24:59;15.60;99.90
5846;DHT22;2949;50.778;7.094;2023-07-30T02:27:25;15.60;99.90
5846;DHT22;2949;50.778;7.094;2023-07-30T02:29:50;15.60;99.90
5846;DHT22;2949;50.778;7.094;2023-07-30T02:32:16;15.60;99.90
5846;DHT22;2949;50.778;7.094;2023-07-30T02:34:41;15.60;99.90
5846;DHT22;2949;50.778;7.094;2023-07-30T02:37:07;15.60;99.90
5846;DHT22;2949;50.778;7.094;2023-07-30T02:39:32;15.70;99.90
5846;DHT22;2949;50.778;7.094;2023-07-30T02:41:58;15.70;99.90
5846;DHT22;2949;50.778;7.094;2023-07-30T02:44:24;15.70;99.90
5846;DHT22;2949;50.778;7.094;2023-07-30T02:46:49;15.70;99.90
5846;DHT22;2949;50.778;7.094;2023-07-30T02:49:14;15.70;99.90
5846;DHT22;2949;50.778;7.094;2023-07-30T02:51:40;15.70;99.90
5846;DHT22;2949;50.778;7.094;2023-07-30T02:54:08;15.70;99.90
5846;DHT22;2949;50.778;7.094;2023-07-30T02:56:33;15.70;99.90
5846;DHT22;2949;50.778;7.094;2023-07-30T02:58:59;15.70;99.90
5846;DHT22;2949;50.778;7.094;2023-07-30T03:01:24;15.70;99.90
5846;DHT22;2949;50.778;7.094;2023-07-30T03:03:50;15.60;99.90
5846;DHT22;2949;50.778;7.094;2023-07-30T03:06:15;15.60;99.90
5846;DHT22;2949;50.778;7.094;2023-07-30T03:08:42;15.50;99.90
5846;DHT22;2949;50.778;7.094;2023-07-30T03:11:08;15.50;99.90
5846;DHT22;2949;50.778;7.094;2023-07-30T03:13:34;15.40;99.90
5846;DHT22;2949;50.778;7.094;2023-07-30T03:15:59;15.40;99.90
5846;DHT22;2949;50.778;7.094;2023-07-30T03:18:24;15.30;99.90
5846;DHT22;2949;50.778;7.094;2023-07-30T03:20:50;15.40;99.90
5846;DHT22;2949;50.778;7.094;2023-07-30T03:23:16;15.40;99.90
5846;DHT22;2949;50.778;7.094;2023-07-30T03:25:41;15.30;99.90
5846;DHT22;2949;50.778;7.094;2023-07-30T03:28:07;15.30;99.90
5846;DHT22;2949;50.778;7.094;2023-07-30T03:30:32;15.40;99.90
5846;DHT22;2949;50.778;7.094;2023-07-30T03:32:58;15.40;99.90
5846;DHT22;2949;50.778;7.094;2023-07-30T03:35:23;15.50;99.90
5846;DHT22;2949;50.778;7.094;2023-07-30T03:37:49;15.50;99.90
5846;DHT22;2949;50.778;7.094;2023-07-30T03:40:14;15.50;99.90
5846;DHT22;2949;50.778;7.094;2023-07-30T03:42:40;15.50;99.90
5846;DHT22;2949;50.778;7.094;2023-07-30T03:45:06;15.60;99.90
5846;DHT22;2949;50.778;7.094;2023-07-30T03:47:31;15.60;99.90
5846;DHT22;2949;50.778;7.094;2023-07-30T03:49:57;15.60;99.90
5846;DHT22;2949;50.778;7.094;2023-07-30T03:52:22;15.60;99.90
5846;DHT22;2949;50.778;7.094;2023-07-30T03:54:48;15.60;99.90
5846;DHT22;2949;50.778;7.094;2023-07-30T03:57:13;15.60;99.90
5846;DHT22;2949;50.778;7.094;2023-07-30T03:59:39;15.60;99.90
5846;DHT22;2949;50.778;7.094;2023-07-30T04:02:04;15.60;99.90
5846;DHT22;2949;50.778;7.094;2023-07-30T04:04:30;15.60;99.90
5846;DHT22;2949;50.778;7.094;2023-07-30T04:06:55;15.50;99.90
5846;DHT22;2949;50.778;7.094;2023-07-30T04:09:21;15.50;99.90
5846;DHT22;2949;50.778;7.094;2023-07-30T04:11:46;15.50;99.90
5846;DHT22;2949;50.778;7.094;2023-07-30T04:14:12;15.40;99.90
5846;DHT22;2949;50.778;7.094;2023-07-30T04:16:37;15.30;99.90
5846;DHT22;2949;50.778;7.094;2023-07-30T04:19:03;15.30;99.90
5846;DHT22;2949;50.778;7.094;2023-07-30T04:21:28;15.40;99.90
5846;DHT22;2949;50.778;7.094;2023-07-30T04:23:54;15.40;99.90
5846;DHT22;2949;50.778;7.094;2023-07-30T04:26:19;15.30;99.90
5846;DHT22;2949;50.778;7.094;2023-07-30T04:28:45;15.30;99.90
5846;DHT22;2949;50.778;7.094;2023-07-30T04:31:10;15.40;99.90
5846;DHT22;2949;50.778;7.094;2023-07-30T04:33:36;15.50;99.90
5846;DHT22;2949;50.778;7.094;2023-07-30T04:36:01;15.50;99.90
5846;DHT22;2949;50.778;7.094;2023-07-30T04:38:27;15.60;99.90
5846;DHT22;2949;50.778;7.094;2023-07-30T04:40:53;15.70;99.90
5846;DHT22;2949;50.778;7.094;2023-07-30T04:43:18;15.70;99.90
5846;DHT22;2949;50.778;7.094;2023-07-30T04:45:44;15.80;99.90
5846;DHT22;2949;50.778;7.094;2023-07-30T04:48:11;15.90;99.90
5846;DHT22;2949;50.778;7.094;2023-07-30T04:50:36;15.90;99.90
5846;DHT22;2949;50.778;7.094;2023-07-30T04:53:03;16.00;99.90
5846;DHT22;2949;50.778;7.094;2023-07-30T04:55:29;16.00;99.90
5846;DHT22;2949;50.778;7.094;2023-07-30T04:57:54;15.90;99.90
5846;DHT22;2949;50.778;7.094;2023-07-30T05:00:20;16.00;99.90
5846;DHT22;2949;50.778;7.094;2023-07-30T05:02:45;16.00;99.90
5846;DHT22;2949;50.778;7.094;2023-07-30T05:05:11;16.00;99.90
5846;DHT22;2949;50.778;7.094;2023-07-30T05:07:36;16.10;99.90
5846;DHT22;2949;50.778;7.094;2023-07-30T05:10:02;16.10;99.90
5846;DHT22;2949;50.778;7.094;2023-07-30T05:12:31;16.10;99.90
5846;DHT22;2949;50.778;7.094;2023-07-30T05:14:56;16.10;99.90
5846;DHT22;2949;50.778;7.094;2023-07-30T05:17:22;16.20;99.90
5846;DHT22;2949;50.778;7.094;2023-07-30T05:19:47;16.20;99.90
5846;DHT22;2949;50.778;7.094;2023-07-30T05:22:13;16.30;99.90
5846;DHT22;2949;50.778;7.094;2023-07-30T05:24:38;16.40;99.90
5846;DHT22;2949;50.778;7.094;2023-07-30T05:27:04;16.50;99.90
5846;DHT22;2949;50.778;7.094;2023-07-30T05:29:30;16.50;99.90
5846;DHT22;2949;50.778;7.094;2023-07-30T05:31:55;16.60;99.90
5846;DHT22;2949;50.778;7.094;2023-07-30T05:34:21;16.60;99.90
5846;DHT22;2949;50.778;7.094;2023-07-30T05:36:46;16.70;99.90
5846;DHT22;2949;50.778;7.094;2023-07-30T05:39:12;16.70;99.90
5846;DHT22;2949;50.778;7.094;2023-07-30T05:41:37;16.80;99.90
5846;DHT22;2949;50.778;7.094;2023-07-30T05:44:03;16.80;99.90
5846;DHT22;2949;50.778;7.094;2023-07-30T05:46:28;16.80;99.90
5846;DHT22;2949;50.778;7.094;2023-07-30T05:48:54;16.90;99.90
5846;DHT22;2949;50.778;7.094;2023-07-30T05:51:19;16.90;99.90
5846;DHT22;2949;50.778;7.094;2023-07-30T05:53:45;16.90;99.90
5846;DHT22;2949;50.778;7.094;2023-07-30T05:56:10;16.90;99.90
5846;DHT22;2949;50.778;7.094;2023-07-30T05:58:38;16.90;99.90
5846;DHT22;2949;50.778;7.094;2023-07-30T06:01:04;17.00;99.90
5846;DHT22;2949;50.778;7.094;2023-07-30T06:03:29;17.10;99.90
5846;DHT22;2949;50.778;7.094;2023-07-30T06:05:55;17.20;99.90
5846;DHT22;2949;50.778;7.094;2023-07-30T06:08:20;17.30;99.90
5846;DHT22;2949;50.778;7.094;2023-07-30T06:10:46;17.30;99.90
5846;DHT22;2949;50.778;7.094;2023-07-30T06:13:12;17.40;99.90
5846;DHT22;2949;50.778;7.094;2023-07-30T06:15:38;17.30;99.90
5846;DHT22;2949;50.778;7.094;2023-07-30T06:18:03;17.20;99.90
5846;DHT22;2949;50.778;7.094;2023-07-30T06:20:29;17.10;99.90
5846;DHT22;2949;50.778;7.094;2023-07-30T06:22:55;17.00;99.90
5846;DHT22;2949;50.778;7.094;2023-07-30T06:25:21;16.90;99.90
5846;DHT22;2949;50.778;7.094;2023-07-30T06:27:46;16.90;99.90
5846;DHT22;2949;50.778;7.094;2023-07-30T06:30:12;16.80;99.90
5846;DHT22;2949;50.778;7.094;2023-07-30T06:32:37;16.80;99.90
5846;DHT22;2949;50.778;7.094;2023-07-30T06:35:03;16.80;99.90
5846;DHT22;2949;50.778;7.094;2023-07-30T06:37:29;16.80;99.90
5846;DHT22;2949;50.778;7.094;2023-07-30T06:39:54;16.80;99.90
5846;DHT22;2949;50.778;7.094;2023-07-30T06:42:20;16.90;99.90
5846;DHT22;2949;50.778;7.094;2023-07-30T06:44:45;16.90;99.90
5846;DHT22;2949;50.778;7.094;2023-07-30T06:47:11;17.00;99.90
5846;DHT22;2949;50.778;7.094;2023-07-30T06:49:36;17.10;99.90
5846;DHT22;2949;50.778;7.094;2023-07-30T06:52:02;17.10;99.90
5846;DHT22;2949;50.778;7.094;2023-07-30T06:54:30;17.30;99.90
5846;DHT22;2949;50.778;7.094;2023-07-30T06:56:55;17.30;99.90
5846;DHT22;2949;50.778;7.094;2023-07-30T06:59:21;17.30;99.90
5846;DHT22;2949;50.778;7.094;2023-07-30T07:01:46;17.40;99.90
5846;DHT22;2949;50.778;7.094;2023-07-30T07:04:12;17.40;99.90
5846;DHT22;2949;50.778;7.094;2023-07-30T07:06:37;17.50;99.90
5846;DHT22;2949;50.778;7.094;2023-07-30T07:09:03;17.50;99.90
5846;DHT22;2949;50.778;7.094;2023-07-30T07:11:28;17.40;99.90
5846;DHT22;2949;50.778;7.094;2023-07-30T07:13:54;17.40;99.90
5846;DHT22;2949;50.778;7.094;2023-07-30T07:16:19;17.40;99.90
5846;DHT22;2949;50.778;7.094;2023-07-30T07:18:45;17.50;99.90
5846;DHT22;2949;50.778;7.094;2023-07-30T07:21:11;17.60;99.90
5846;DHT22;2949;50.778;7.094;2023-07-30T07:23:36;17.50;99.90
5846;DHT22;2949;50.778;7.094;2023-07-30T07:26:02;17.50;99.90
5846;DHT22;2949;50.778;7.094;2023-07-30T07:28:27;17.60;99.90
5846;DHT22;2949;50.778;7.094;2023-07-30T07:30:54;17.70;99.90
5846;DHT22;2949;50.778;7.094;2023-07-30T07:33:20;17.80;99.90
5846;DHT22;2949;50.778;7.094;2023-07-30T07:35:45;17.90;99.90
5846;DHT22;2949;50.778;7.094;2023-07-30T07:38:11;18.10;99.90
5846;DHT22;2949;50.778;7.094;2023-07-30T07:40:40;18.30;99.90
5846;DHT22;2949;50.778;7.094;2023-07-30T07:43:07;18.40;99.90
5846;DHT22;2949;50.778;7.094;2023-07-30T07:45:32;18.50;99.90
5846;DHT22;2949;50.778;7.094;2023-07-30T07:47:58;18.50;99.90
5846;DHT22;2949;50.778;7.094;2023-07-30T07:50:24;18.50;99.90
5846;DHT22;2949;50.778;7.094;2023-07-30T07:52:49;18.50;99.90
5846;DHT22;2949;50.778;7.094;2023-07-30T07:55:15;18.50;99.90
5846;DHT22;2949;50.778;7.094;2023-07-30T07:57:40;18.40;99.90
5846;DHT22;2949;50.778;7.094;2023-07-30T08:00:06;18.40;99.90
5846;DHT22;2949;50.778;7.094;2023-07-30T08:02:32;18.60;99.90
5846;DHT22;2949;50.778;7.094;2023-07-30T08:04:58;18.70;99.90
5846;DHT22;2949;50.778;7.094;2023-07-30T08:07:23;18.70;99.90
5846;DHT22;2949;50.778;7.094;2023-07-30T08:09:48;18.80;99.90
5846;DHT22;2949;50.778;7.094;2023-07-30T08:12:14;19.00;99.90
5846;DHT22;2949;50.778;7.094;2023-07-30T08:14:40;19.00;99.90
5846;DHT22;2949;50.778;7.094;2023-07-30T08:17:05;19.20;99.90
5846;DHT22;2949;50.778;7.094;2023-07-30T08:19:31;19.40;99.90
5846;DHT22;2949;50.778;7.094;2023-07-30T08:21:58;19.50;99.90
5846;DHT22;2949;50.778;7.094;2023-07-30T08:24:24;19.60;99.90
5846;DHT22;2949;50.778;7.094;2023-07-30T08:26:49;19.60;99.90
5846;DHT22;2949;50.778;7.094;2023-07-30T08:29:15;19.60;99.90
5846;DHT22;2949;50.778;7.094;2023-07-30T08:31:41;19.80;99.90
5846;DHT22;2949;50.778;7.094;2023-07-30T08:34:07;19.60;99.90
5846;DHT22;2949;50.778;7.094;2023-07-30T08:36:32;19.80;99.90
5846;DHT22;2949;50.778;7.094;2023-07-30T08:38:58;20.10;99.90
5846;DHT22;2949;50.778;7.094;2023-07-30T08:41:24;20.20;99.90
5846;DHT22;2949;50.778;7.094;2023-07-30T08:43:50;20.00;99.90
5846;DHT22;2949;50.778;7.094;2023-07-30T08:46:17;19.70;99.90
5846;DHT22;2949;50.778;7.094;2023-07-30T08:48:43;19.50;99.90
5846;DHT22;2949;50.778;7.094;2023-07-30T08:51:08;19.30;99.90
5846;DHT22;2949;50.778;7.094;2023-07-30T08:53:36;19.10;99.90
5846;DHT22;2949;50.778;7.094;2023-07-30T08:56:02;19.30;99.90
5846;DHT22;2949;50.778;7.094;2023-07-30T08:58:33;19.90;99.90
5846;DHT22;2949;50.778;7.094;2023-07-30T09:00:59;20.50;99.90
5846;DHT22;2949;50.778;7.094;2023-07-30T09:03:27;21.30;99.90
5846;DHT22;2949;50.778;7.094;2023-07-30T09:05:53;23.60;99.90
5846;DHT22;2949;50.778;7.094;2023-07-30T09:08:19;25.50;99.90
5846;DHT22;2949;50.778;7.094;2023-07-30T09:10:44;26.70;99.90
5846;DHT22;2949;50.778;7.094;2023-07-30T09:13:10;26.20;99.90
5846;DHT22;2949;50.778;7.094;2023-07-30T09:15:37;26.10;99.90
5846;DHT22;2949;50.778;7.094;2023-07-30T09:18:04;25.60;99.90
5846;DHT22;2949;50.778;7.094;2023-07-30T09:20:37;24.90;99.90
5846;DHT22;2949;50.778;7.094;2023-07-30T09:23:03;25.60;99.90
5846;DHT22;2949;50.778;7.094;2023-07-30T09:25:29;26.30;99.90
5846;DHT22;2949;50.778;7.094;2023-07-30T09:27:55;26.20;99.90
5846;DHT22;2949;50.778;7.094;2023-07-30T09:30:26;25.60;99.90
5846;DHT22;2949;50.778;7.094;2023-07-30T09:32:53;25.40;99.90
5846;DHT22;2949;50.778;7.094;2023-07-30T09:35:20;25.20;99.90
5846;DHT22;2949;50.778;7.094;2023-07-30T09:37:46;25.10;99.90
5846;DHT22;2949;50.778;7.094;2023-07-30T09:40:13;24.90;99.90
5846;DHT22;2949;50.778;7.094;2023-07-30T09:42:42;25.10;99.90
5846;DHT22;2949;50.778;7.094;2023-07-30T09:45:22;24.70;99.90
5846;DHT22;2949;50.778;7.094;2023-07-30T09:47:48;24.10;99.90
5846;DHT22;2949;50.778;7.094;2023-07-30T09:50:14;23.70;99.90
5846;DHT22;2949;50.778;7.094;2023-07-30T09:52:44;22.80;99.90
5846;DHT22;2949;50.778;7.094;2023-07-30T09:55:10;22.20;99.90
5846;DHT22;2949;50.778;7.094;2023-07-30T09:57:37;21.50;99.90
5846;DHT22;2949;50.778;7.094;2023-07-30T10:00:03;22.90;99.90
5846;DHT22;2949;50.778;7.094;2023-07-30T10:02:32;23.60;99.90
5846;DHT22;2949;50.778;7.094;2023-07-30T10:05:03;25.00;99.90
5846;DHT22;2949;50.778;7.094;2023-07-30T10:07:34;25.70;99.70
5846;DHT22;2949;50.778;7.094;2023-07-30T10:10:01;26.60;96.00
5846;DHT22;2949;50.778;7.094;2023-07-30T10:12:32;26.20;94.80
5846;DHT22;2949;50.778;7.094;2023-07-30T10:14:58;25.70;95.10
5846;DHT22;2949;50.778;7.094;2023-07-30T10:17:23;25.40;96.20
5846;DHT22;2949;50.778;7.094;2023-07-30T10:19:49;24.30;97.00
5846;DHT22;2949;50.778;7.094;2023-07-30T10:25:01;24.90;97.90
5846;DHT22;2949;50.778;7.094;2023-07-30T10:27:38;25.70;93.20
5846;DHT22;2949;50.778;7.094;2023-07-30T10:30:14;25.90;92.60
5846;DHT22;2949;50.778;7.094;2023-07-30T10:35:40;25.40;91.60
5846;DHT22;2949;50.778;7.094;2023-07-30T10:41:19;23.50;97.00
5846;DHT22;2949;50.778;7.094;2023-07-30T10:43:48;22.60;99.90
5846;DHT22;2949;50.778;7.094;2023-07-30T10:46:16;22.50;99.90
5846;DHT22;2949;50.778;7.094;2023-07-30T10:48:43;22.70;99.90
5846;DHT22;2949;50.778;7.094;2023-07-30T10:51:10;22.80;99.90
5846;DHT22;2949;50.778;7.094;2023-07-30T10:53:36;22.90;99.90
5846;DHT22;2949;50.778;7.094;2023-07-30T10:56:03;23.00;99.90
5846;DHT22;2949;50.778;7.094;2023-07-30T10:58:34;22.70;99.90
5846;DHT22;2949;50.778;7.094;2023-07-30T11:01:07;22.70;99.90
5846;DHT22;2949;50.778;7.094;2023-07-30T11:03:33;22.60;99.90
5846;DHT22;2949;50.778;7.094;2023-07-30T11:06:00;22.80;99.90
5846;DHT22;2949;50.778;7.094;2023-07-30T11:08:42;22.80;99.90
5846;DHT22;2949;50.778;7.094;2023-07-30T11:11:09;22.80;99.90
5846;DHT22;2949;50.778;7.094;2023-07-30T11:13:44;22.90;99.90
5846;DHT22;2949;50.778;7.094;2023-07-30T11:16:12;23.00;99.90
5846;DHT22;2949;50.778;7.094;2023-07-30T11:18:39;23.30;99.90
5846;DHT22;2949;50.778;7.094;2023-07-30T11:21:09;23.30;98.20
5846;DHT22;2949;50.778;7.094;2023-07-30T11:23:37;23.20;98.20
5846;DHT22;2949;50.778;7.094;2023-07-30T11:26:04;23.30;98.30
5846;DHT22;2949;50.778;7.094;2023-07-30T11:28:35;23.50;96.10
5846;DHT22;2949;50.778;7.094;2023-07-30T11:31:09;23.70;95.50
5846;DHT22;2949;50.778;7.094;2023-07-30T11:33:36;24.30;95.90
5846;DHT22;2949;50.778;7.094;2023-07-30T11:36:03;24.70;96.70
5846;DHT22;2949;50.778;7.094;2023-07-30T11:38:30;25.20;91.50
5846;DHT22;2949;50.778;7.094;2023-07-30T11:40:57;25.20;90.50
5846;DHT22;2949;50.778;7.094;2023-07-30T11:43:23;24.90;88.10
5846;DHT22;2949;50.778;7.094;2023-07-30T11:45:49;24.50;90.70
5846;DHT22;2949;50.778;7.094;2023-07-30T11:48:15;24.60;91.70
5846;DHT22;2949;50.778;7.094;2023-07-30T11:50:48;25.20;90.90
5846;DHT22;2949;50.778;7.094;2023-07-30T11:53:15;25.30;89.10
5846;DHT22;2949;50.778;7.094;2023-07-30T11:55:41;25.60;88.40
5846;DHT22;2949;50.778;7.094;2023-07-30T11:58:08;25.80;88.60
5846;DHT22;2949;50.778;7.094;2023-07-30T12:00:35;25.60;85.10
5846;DHT22;2949;50.778;7.094;2023-07-30T12:03:09;25.90;90.30
5846;DHT22;2949;50.778;7.094;2023-07-30T12:05:36;25.90;84.90
5846;DHT22;2949;50.778;7.094;2023-07-30T12:08:03;25.70;87.10
5846;DHT22;2949;50.778;7.094;2023-07-30T12:10:46;25.60;86.50
5846;DHT22;2949;50.778;7.094;2023-07-30T12:13:18;25.30;84.60
5846;DHT22;2949;50.778;7.094;2023-07-30T12:15:54;25.20;90.40
5846;DHT22;2949;50.778;7.094;2023-07-30T12:18:20;25.20;84.80
5846;DHT22;2949;50.778;7.094;2023-07-30T12:20:49;25.40;87.20
5846;DHT22;2949;50.778;7.094;2023-07-30T12:23:19;25.80;84.50
5846;DHT22;2949;50.778;7.094;2023-07-30T12:25:45;25.90;85.10
5846;DHT22;2949;50.778;7.094;2023-07-30T12:28:11;25.40;85.50
5846;DHT22;2949;50.778;7.094;2023-07-30T12:30:37;24.70;87.90
5846;DHT22;2949;50.778;7.094;2023-07-30T12:33:03;23.90;90.40
5846;DHT22;2949;50.778;7.094;2023-07-30T12:35:30;23.40;91.60
5846;DHT22;2949;50.778;7.094;2023-07-30T12:37:55;23.00;93.50
5846;DHT22;2949;50.778;7.094;2023-07-30T12:40:21;23.20;96.00
5846;DHT22;2949;50.778;7.094;2023-07-30T12:42:46;23.70;94.40
5846;DHT22;2949;50.778;7.094;2023-07-30T12:45:12;24.20;91.90
5846;DHT22;2949;50.778;7.094;2023-07-30T12:47:37;24.30;91.00
5846;DHT22;2949;50.778;7.094;2023-07-30T12:50:04;24.30;88.10
5846;DHT22;2949;50.778;7.094;2023-07-30T12:52:31;24.40;87.50
5846;DHT22;2949;50.778;7.094;2023-07-30T12:54:57;24.30;87.10
5846;DHT22;2949;50.778;7.094;2023-07-30T12:57:23;24.20;88.50
5846;DHT22;2949;50.778;7.094;2023-07-30T12:59:48;24.30;90.30
5846;DHT22;2949;50.778;7.094;2023-07-30T13:02:13;24.30;91.10
5846;DHT22;2949;50.778;7.094;2023-07-30T13:04:39;24.40;91.40
5846;DHT22;2949;50.778;7.094;2023-07-30T13:07:05;24.20;89.60
5846;DHT22;2949;50.778;7.094;2023-07-30T13:09:30;24.00;90.80
5846;DHT22;2949;50.778;7.094;2023-07-30T13:11:56;23.80;91.30
5846;DHT22;2949;50.778;7.094;2023-07-30T13:14:22;23.50;91.50
5846;DHT22;2949;50.778;7.094;2023-07-30T13:16:47;23.50;92.60
5846;DHT22;2949;50.778;7.094;2023-07-30T13:19:13;23.60;92.90
5846;DHT22;2949;50.778;7.094;2023-07-30T13:21:38;23.60;92.70
5846;DHT22;2949;50.778;7.094;2023-07-30T13:24:04;23.80;93.50
5846;DHT22;2949;50.778;7.094;2023-07-30T13:26:29;24.10;92.80
5846;DHT22;2949;50.778;7.094;2023-07-30T13:28:55;24.40;93.30
5846;DHT22;2949;50.778;7.094;2023-07-30T13:31:20;24.70;92.70
5846;DHT22;2949;50.778;7.094;2023-07-30T13:33:46;24.80;91.60
5846;DHT22;2949;50.778;7.094;2023-07-30T13:36:13;24.60;90.80
5846;DHT22;2949;50.778;7.094;2023-07-30T13:38:39;24.20;90.70
5846;DHT22;2949;50.778;7.094;2023-07-30T13:41:05;24.20;91.40
5846;DHT22;2949;50.778;7.094;2023-07-30T13:43:31;24.10;91.20
5846;DHT22;2949;50.778;7.094;2023-07-30T13:45:57;23.70;90.80
5846;DHT22;2949;50.778;7.094;2023-07-30T13:48:24;23.50;93.20
5846;DHT22;2949;50.778;7.094;2023-07-30T13:50:49;23.40;93.00
5846;DHT22;2949;50.778;7.094;2023-07-30T13:53:15;23.20;93.20
5846;DHT22;2949;50.778;7.094;2023-07-30T13:55:40;23.30;93.70
5846;DHT22;2949;50.778;7.094;2023-07-30T13:58:06;23.60;94.70
5846;DHT22;2949;50.778;7.094;2023-07-30T14:00:31;23.70;94.50
5846;DHT22;2949;50.778;7.094;2023-07-30T14:02:57;24.00;94.80
5846;DHT22;2949;50.778;7.094;2023-07-30T14:05:22;24.20;92.70
5846;DHT22;2949;50.778;7.094;2023-07-30T14:07:48;24.20;92.90
5846;DHT22;2949;50.778;7.094;2023-07-30T14:10:15;24.10;93.70
5846;DHT22;2949;50.778;7.094;2023-07-30T14:12:41;24.10;93.40
5846;DHT22;2949;50.778;7.094;2023-07-30T14:15:06;23.80;93.70
5846;DHT22;2949;50.778;7.094;2023-07-30T14:17:32;23.60;95.60
5846;DHT22;2949;50.778;7.094;2023-07-30T14:19:58;23.80;95.80
5846;DHT22;2949;50.778;7.094;2023-07-30T14:22:23;23.90;93.60
5846;DHT22;2949;50.778;7.094;2023-07-30T14:24:49;24.10;94.20
5846;DHT22;2949;50.778;7.094;2023-07-30T14:27:14;24.30;94.10
5846;DHT22;2949;50.778;7.094;2023-07-30T14:29:40;24.60;93.10
5846;DHT22;2949;50.778;7.094;2023-07-30T14:32:06;24.60;90.20
5846;DHT22;2949;50.778;7.094;2023-07-30T14:34:31;24.50;90.90
5846;DHT22;2949;50.778;7.094;2023-07-30T14:36:57;24.50;90.20
5846;DHT22;2949;50.778;7.094;2023-07-30T14:39:22;24.50;86.80
5846;DHT22;2949;50.778;7.094;2023-07-30T14:41:48;24.40;88.30
5846;DHT22;2949;50.778;7.094;2023-07-30T14:44:13;24.50;90.70
5846;DHT22;2949;50.778;7.094;2023-07-30T14:46:39;24.60;88.80
5846;DHT22;2949;50.778;7.094;2023-07-30T14:49:04;24.50;88.60
5846;DHT22;2949;50.778;7.094;2023-07-30T14:51:30;24.30;86.10
5846;DHT22;2949;50.778;7.094;2023-07-30T14:53:55;23.90;86.60
5846;DHT22;2949;50.778;7.094;2023-07-30T14:56:21;23.70;88.80
5846;DHT22;2949;50.778;7.094;2023-07-30T14:58:46;23.70;88.10
5846;DHT22;2949;50.778;7.094;2023-07-30T15:01:12;23.80;87.20
5846;DHT22;2949;50.778;7.094;2023-07-30T15:03:37;23.80;89.20
5846;DHT22;2949;50.778;7.094;2023-07-30T15:06:03;24.00;90.10
5846;DHT22;2949;50.778;7.094;2023-07-30T15:08:28;24.20;90.10
5846;DHT22;2949;50.778;7.094;2023-07-30T15:10:55;24.50;86.20
5846;DHT22;2949;50.778;7.094;2023-07-30T15:13:20;24.40;84.70
5846;DHT22;2949;50.778;7.094;2023-07-30T15:15:48;24.10;85.70
5846;DHT22;2949;50.778;7.094;2023-07-30T15:18:14;23.90;85.30
5846;DHT22;2949;50.778;7.094;2023-07-30T15:20:39;24.00;86.00
5846;DHT22;2949;50.778;7.094;2023-07-30T15:23:05;24.30;85.80
5846;DHT22;2949;50.778;7.094;2023-07-30T15:25:30;24.70;84.80
5846;DHT22;2949;50.778;7.094;2023-07-30T15:27:56;24.70;84.70
5846;DHT22;2949;50.778;7.094;2023-07-30T15:30:23;24.40;84.70
5846;DHT22;2949;50.778;7.094;2023-07-30T15:32:49;23.90;85.00
5846;DHT22;2949;50.778;7.094;2023-07-30T15:35:15;23.70;88.60
5846;DHT22;2949;50.778;7.094;2023-07-30T15:37:40;23.50;89.10
5846;DHT22;2949;50.778;7.094;2023-07-30T15:40:06;23.40;90.50
5846;DHT22;2949;50.778;7.094;2023-07-30T15:42:32;23.30;90.80
5846;DHT22;2949;50.778;7.094;2023-07-30T15:44:58;23.50;90.60
5846;DHT22;2949;50.778;7.094;2023-07-30T15:47:24;23.90;89.20
5846;DHT22;2949;50.778;7.094;2023-07-30T15:49:49;24.20;88.10
5846;DHT22;2949;50.778;7.094;2023-07-30T15:52:15;24.40;88.60
5846;DHT22;2949;50.778;7.094;2023-07-30T15:54:40;24.20;90.00
5846;DHT22;2949;50.778;7.094;2023-07-30T15:57:06;24.10;88.00
5846;DHT22;2949;50.778;7.094;2023-07-30T15:59:33;24.20;88.80
5846;DHT22;2949;50.778;7.094;2023-07-30T16:01:59;24.20;88.60
5846;DHT22;2949;50.778;7.094;2023-07-30T16:04:26;24.30;85.80